Terminal Aerodrome Forecast
Issued by NWS Cleveland, OH

Home | Current Version | Previous Version | Graphics & Text | Print | Product List | Glossary On
Versions: 1 2 3 4 5 6 7 8 9 10 11 12 13 14 15 16 17 18 19 20 21 22 23 24 25
000
FTUS41 KCLE 260853 AAB
TAFCLE
TAF AMD
KCLE 260853Z 2609/2712 24005KT P6SM VCSH SCT025 BKN050
      TEMPO 2610/2614 -SHRA BKN025
     FM261600 31009KT P6SM OVC035
     FM270000 33005KT P6SM BKN035=

USA.gov is the U.S. government's official web portal to all federal, state and local government web resources and services.